createdAt,value
2023-04-24T00:00:13.842Z,9.13
2023-04-24T00:00:48.143Z,9.13
2023-04-24T00:01:21.803Z,9.13
2023-04-24T00:01:54.438Z,9.13
2023-04-24T00:02:27.539Z,9.13
2023-04-24T00:03:00.343Z,9.13
2023-04-24T00:03:34.689Z,9.13
2023-04-24T00:04:08.184Z,9.13
2023-04-24T00:04:41.452Z,9.13
2023-04-24T00:05:15.845Z,9.13
2023-04-24T00:05:48.657Z,9.13
2023-04-24T00:06:21.441Z,9.13
2023-04-24T00:06:58.282Z,9.13
2023-04-24T00:07:31.229Z,9.13
2023-04-24T00:08:03.853Z,9.13
2023-04-24T00:08:37.394Z,9.13
2023-04-24T00:09:10.854Z,9.13
2023-04-24T00:09:44.702Z,9.13
2023-04-24T00:10:17.510Z,9.13
2023-04-24T00:10:50.657Z,9.13
2023-04-24T00:11:24.211Z,9.13
2023-04-24T00:11:57.126Z,9.13
2023-04-24T00:12:29.727Z,9.13
2023-04-24T00:13:02.199Z,9.13
2023-04-24T00:13:35.754Z,9.13
2023-04-24T00:14:08.346Z,9.13
2023-04-24T00:14:40.965Z,9.13
2023-04-24T00:15:14.864Z,9.13
2023-04-24T00:15:48.379Z,9.06
2023-04-24T00:16:21.127Z,9.13
2023-04-24T00:16:53.716Z,9.13
2023-04-24T00:17:27.254Z,9.13
2023-04-24T00:17:59.925Z,9.13
2023-04-24T00:18:32.518Z,9.13
2023-04-24T00:19:06.863Z,9.13
2023-04-24T00:19:40.583Z,9.13
2023-04-24T00:20:13.182Z,9.13
2023-04-24T00:20:47.749Z,9.13
2023-04-24T00:21:20.248Z,9.13
2023-04-24T00:21:52.909Z,9.13
2023-04-24T00:22:26.493Z,9.13
2023-04-24T00:22:59.018Z,9.13
2023-04-24T00:23:32.205Z,9.19
2023-04-24T00:24:05.955Z,9.19
2023-04-24T00:24:38.444Z,9.19
2023-04-24T00:25:10.934Z,9.19
2023-04-24T00:25:44.535Z,9.19
2023-04-24T00:26:17.005Z,9.19
2023-04-24T00:26:49.447Z,9.19
2023-04-24T00:27:22.959Z,9.19
2023-04-24T00:27:55.509Z,9.25
2023-04-24T00:28:28.083Z,9.25
2023-04-24T00:29:01.654Z,9.25
2023-04-24T00:29:34.287Z,9.25
2023-04-24T00:30:08.001Z,9.25
2023-04-24T00:30:42.854Z,9.25
2023-04-24T00:31:15.579Z,9.25
2023-04-24T00:31:49.127Z,9.25
2023-04-24T00:32:21.724Z,9.25
2023-04-24T00:32:54.762Z,9.25
2023-04-24T00:33:30.813Z,9.25
2023-04-24T00:34:03.590Z,9.25
2023-04-24T00:34:36.144Z,9.25
2023-04-24T00:35:10.486Z,9.25
2023-04-24T00:35:43.015Z,9.25
2023-04-24T00:36:17.216Z,9.25
2023-04-24T00:36:53.147Z,9.25
2023-04-24T00:37:25.601Z,9.19
2023-04-24T00:37:58.164Z,9.19
2023-04-24T00:38:31.707Z,9.19
2023-04-24T00:39:04.319Z,9.19
2023-04-24T00:39:36.766Z,9.19
2023-04-24T00:40:11.285Z,9.19
2023-04-24T00:40:43.785Z,9.19
2023-04-24T00:41:16.539Z,9.19
2023-04-24T00:41:51.843Z,9.19
2023-04-24T00:42:24.757Z,9.19
2023-04-24T00:42:57.661Z,9.19
2023-04-24T00:43:31.540Z,9.19
2023-04-24T00:44:04.133Z,9.19
2023-04-24T00:44:37.029Z,9.19
2023-04-24T00:45:11.260Z,9.19
2023-04-24T00:45:45.474Z,9.19
2023-04-24T00:46:18.513Z,9.19
2023-04-24T00:46:55.735Z,9.13
2023-04-24T00:47:29.222Z,9.13
2023-04-24T00:48:02.802Z,9.13
2023-04-24T00:48:36.690Z,9.13
2023-04-24T00:49:09.167Z,9.13
2023-04-24T00:49:41.891Z,9.13
2023-04-24T00:50:18.124Z,9.13
2023-04-24T00:50:50.608Z,9.13
2023-04-24T00:51:23.168Z,9.13
2023-04-24T00:51:57.823Z,9.13
2023-04-24T00:52:32.107Z,9.13
2023-04-24T00:53:04.688Z,9.13
2023-04-24T00:53:38.419Z,9.13
2023-04-24T00:54:11.224Z,9.06
2023-04-24T00:54:43.767Z,9.13
2023-04-24T00:55:17.279Z,9.13
2023-04-24T00:55:49.875Z,9.13
2023-04-24T00:56:22.666Z,9.13
2023-04-24T00:56:56.119Z,9.13
2023-04-24T00:57:29.065Z,9.19
2023-04-24T00:58:01.873Z,9.19
2023-04-24T00:58:35.534Z,9.19
2023-04-24T00:59:08.410Z,9.19
2023-04-24T00:59:42.365Z,9.19
2023-04-24T01:00:17.497Z,9.19
2023-04-24T01:00:54.098Z,9.19
2023-04-24T01:01:26.688Z,9.25
2023-04-24T01:02:00.754Z,9.25
2023-04-24T01:02:35.660Z,9.25
2023-04-24T01:03:09.072Z,9.25
2023-04-24T01:03:43.602Z,9.25
2023-04-24T01:04:18.978Z,9.25
2023-04-24T01:04:52.451Z,9.25
2023-04-24T01:05:26.035Z,9.25
2023-04-24T01:05:58.603Z,9.25
2023-04-24T01:06:32.244Z,9.25
2023-04-24T01:07:10.865Z,9.25
2023-04-24T01:07:46.597Z,9.25
2023-04-24T01:08:21.046Z,9.25
2023-04-24T01:08:53.894Z,9.31
2023-04-24T01:09:27.192Z,9.31
2023-04-24T01:10:00.790Z,9.31
2023-04-24T01:10:35.793Z,9.31
2023-04-24T01:11:09.543Z,9.31
2023-04-24T01:11:43.738Z,9.31
2023-04-24T01:12:18.486Z,9.31
2023-04-24T01:12:53.742Z,9.31
2023-04-24T01:13:26.381Z,9.31
2023-04-24T01:13:59.976Z,9.31
2023-04-24T01:14:34.122Z,9.31
2023-04-24T01:15:07.788Z,9.31
2023-04-24T01:15:41.532Z,9.31
2023-04-24T01:16:18.441Z,9.31
2023-04-24T01:16:51.289Z,9.31
2023-04-24T01:17:23.781Z,9.31
2023-04-24T01:17:57.442Z,9.31
2023-04-24T01:18:30.061Z,9.31
2023-04-24T01:19:03.451Z,9.31
2023-04-24T01:19:36.923Z,9.31
2023-04-24T01:20:11.750Z,9.31
2023-04-24T01:20:46.476Z,9.31
2023-04-24T01:21:22.158Z,9.31
2023-04-24T01:21:59.541Z,9.31
2023-04-24T01:22:34.152Z,9.31
2023-04-24T01:23:07.676Z,9.31
2023-04-24T01:23:40.455Z,9.31
2023-04-24T01:24:13.086Z,9.31
2023-04-24T01:24:46.680Z,9.31
2023-04-24T01:25:19.344Z,9.31
2023-04-24T01:25:52.617Z,9.31
2023-04-24T01:26:26.611Z,9.31
2023-04-24T01:26:59.292Z,9.31
2023-04-24T01:27:31.767Z,9.31
2023-04-24T01:28:05.963Z,9.31
2023-04-24T01:28:38.738Z,9.31
2023-04-24T01:29:11.824Z,9.25
2023-04-24T01:29:45.569Z,9.25
2023-04-24T01:30:18.306Z,9.25
2023-04-24T01:30:50.956Z,9.25
2023-04-24T01:31:24.817Z,9.25
2023-04-24T01:32:00.853Z,9.25
2023-04-24T01:32:34.769Z,9.19
2023-04-24T01:33:07.604Z,9.19
2023-04-24T01:33:40.248Z,9.19
2023-04-24T01:34:13.180Z,9.19
2023-04-24T01:34:47.257Z,9.19
2023-04-24T01:35:19.883Z,9.19
2023-04-24T01:35:52.804Z,9.19
2023-04-24T01:36:28.214Z,9.19
2023-04-24T01:37:01.607Z,9.19
2023-04-24T01:37:35.748Z,9.19
2023-04-24T01:38:10.579Z,9.19
2023-04-24T01:38:43.121Z,9.19
2023-04-24T01:39:17.513Z,9.19
2023-04-24T01:39:51.079Z,9.19
2023-04-24T01:40:24.754Z,9.19
2023-04-24T01:40:57.275Z,9.19
2023-04-24T01:41:32.648Z,9.19
2023-04-24T01:42:06.946Z,9.19
2023-04-24T01:42:42.820Z,9.19
2023-04-24T01:43:15.529Z,9.19
2023-04-24T01:43:48.464Z,9.19
2023-04-24T01:44:22.028Z,9.19
2023-04-24T01:44:54.801Z,9.19
2023-04-24T01:45:27.396Z,9.19
2023-04-24T01:46:00.883Z,9.19
2023-04-24T01:46:35.769Z,9.19
2023-04-24T01:47:10.567Z,9.19
2023-04-24T01:47:44.628Z,9.19
2023-04-24T01:48:17.156Z,9.19
2023-04-24T01:48:49.953Z,9.19
2023-04-24T01:49:23.589Z,9.19
2023-04-24T01:49:56.229Z,9.19
2023-04-24T01:50:28.797Z,9.19
2023-04-24T01:51:02.935Z,9.19
2023-04-24T01:51:36.228Z,9.19
2023-04-24T01:52:09.368Z,9.19
2023-04-24T01:52:44.566Z,9.19
2023-04-24T01:53:17.150Z,9.19
2023-04-24T01:53:49.769Z,9.19
2023-04-24T01:54:23.308Z,9.19
2023-04-24T01:54:56.806Z,9.19
2023-04-24T01:55:29.369Z,9.19
2023-04-24T01:56:03.690Z,9.19
2023-04-24T01:56:36.750Z,9.19
2023-04-24T01:57:09.671Z,9.19
2023-04-24T01:57:43.225Z,9.19
2023-04-24T01:58:15.944Z,9.19
2023-04-24T01:58:49.043Z,9.13
2023-04-24T01:59:25.108Z,9.13
2023-04-24T01:59:57.771Z,9.13
2023-04-24T02:02:10.792Z,9.13
2023-04-24T02:02:47.377Z,9.19
2023-04-24T02:03:20.981Z,9.19
2023-04-24T02:03:56.676Z,9.19
2023-04-24T02:04:29.715Z,9.19
2023-04-24T02:05:02.269Z,9.13
2023-04-24T02:05:35.804Z,9.13
2023-04-24T02:06:09.467Z,9.13
2023-04-24T02:06:41.956Z,9.13
2023-04-24T02:07:15.552Z,9.13
2023-04-24T02:07:49.428Z,9.13
2023-04-24T02:08:21.861Z,9.13
2023-04-24T02:08:55.740Z,9.13
2023-04-24T02:09:29.436Z,9.13
2023-04-24T02:10:02.567Z,9.13
2023-04-24T02:10:35.026Z,9.19
2023-04-24T02:11:08.673Z,9.19
2023-04-24T02:11:41.157Z,9.19
2023-04-24T02:12:13.801Z,9.19
2023-04-24T02:12:47.432Z,9.13
2023-04-24T02:13:19.935Z,9.13
2023-04-24T02:13:52.647Z,9.13
2023-04-24T02:14:26.154Z,9.13
2023-04-24T02:14:58.731Z,9.13
2023-04-24T02:15:31.297Z,9.06
2023-04-24T02:16:06.668Z,9.06
2023-04-24T02:16:39.306Z,9.06
2023-04-24T02:17:13.287Z,9.06
2023-04-24T02:17:46.809Z,9.06
2023-04-24T02:18:19.308Z,9.06
2023-04-24T02:18:51.776Z,9.06
2023-04-24T02:19:25.235Z,9.06
2023-04-24T02:19:57.732Z,9.06
2023-04-24T02:20:30.261Z,9.06
2023-04-24T02:21:03.874Z,9.06
2023-04-24T02:21:36.392Z,9.06
2023-04-24T02:22:08.976Z,9.06
2023-04-24T02:22:42.440Z,9.06
2023-04-24T02:23:16.496Z,9.06
2023-04-24T02:23:49.072Z,9.06
2023-04-24T02:24:22.547Z,9.06
2023-04-24T02:24:55.162Z,9.06
2023-04-24T02:25:27.660Z,9.06
2023-04-24T02:26:02.733Z,9.06
2023-04-24T02:26:35.508Z,9.06
2023-04-24T02:27:08.128Z,9.06
2023-04-24T02:27:41.554Z,9.06
2023-04-24T02:28:14.150Z,9.06
2023-04-24T02:28:46.692Z,9.06
2023-04-24T02:29:20.220Z,9.06
2023-04-24T02:29:52.674Z,9.00
2023-04-24T02:30:25.620Z,9.00
2023-04-24T02:31:00.914Z,9.00
2023-04-24T02:31:33.553Z,9.00
2023-04-24T02:32:06.154Z,9.00
2023-04-24T02:32:40.459Z,9.00
2023-04-24T02:33:17.760Z,9.00
2023-04-24T02:33:50.264Z,9.00
2023-04-24T02:34:24.118Z,9.00
2023-04-24T02:34:56.606Z,9.00
2023-04-24T02:35:29.206Z,9.00
2023-04-24T02:36:02.935Z,8.94
2023-04-24T02:36:35.477Z,8.94
2023-04-24T02:37:08.043Z,8.94
2023-04-24T02:37:40.550Z,8.94
2023-04-24T02:38:14.101Z,8.94
2023-04-24T02:38:47.939Z,8.94
2023-04-24T02:39:20.550Z,8.94
2023-04-24T02:39:54.052Z,8.94
2023-04-24T02:40:26.711Z,8.94
2023-04-24T02:40:59.209Z,8.94
2023-04-24T02:41:33.855Z,9.00
2023-04-24T02:42:06.448Z,9.00
2023-04-24T02:42:39.973Z,9.00
2023-04-24T02:43:12.537Z,9.00
2023-04-24T02:43:45.101Z,9.00
2023-04-24T02:44:19.301Z,9.00
2023-04-24T02:44:56.776Z,9.00
2023-04-24T02:45:29.298Z,9.00
2023-04-24T02:46:02.125Z,9.00
2023-04-24T02:46:35.815Z,9.00
2023-04-24T02:47:09.592Z,9.00
2023-04-24T02:47:42.109Z,9.00
2023-04-24T02:48:15.752Z,9.00
2023-04-24T02:48:48.375Z,9.00
2023-04-24T02:49:21.346Z,9.00
2023-04-24T02:49:54.808Z,9.00
2023-04-24T02:50:27.269Z,9.00
2023-04-24T02:50:59.779Z,9.00
2023-04-24T02:51:33.404Z,9.00
2023-04-24T02:52:06.134Z,9.00
2023-04-24T02:52:38.712Z,9.00
2023-04-24T02:53:12.184Z,9.00
2023-04-24T02:53:44.744Z,9.00
2023-04-24T02:54:18.573Z,9.00
2023-04-24T02:54:52.022Z,9.00
2023-04-24T02:55:24.553Z,9.00
2023-04-24T02:55:57.116Z,9.00
2023-04-24T02:56:30.662Z,9.00
2023-04-24T02:57:05.084Z,9.00
2023-04-24T02:57:38.016Z,9.00
2023-04-24T02:58:13.795Z,9.00
2023-04-24T02:58:46.409Z,9.00
2023-04-24T02:59:18.940Z,9.00
2023-04-24T02:59:52.505Z,9.00
2023-04-24T03:00:25.249Z,9.00
2023-04-24T03:00:57.786Z,9.00
2023-04-24T03:01:31.731Z,9.00
2023-04-24T03:02:04.276Z,9.00
2023-04-24T03:02:36.962Z,9.00
2023-04-24T03:03:10.843Z,9.00
2023-04-24T03:03:43.639Z,9.00
2023-04-24T03:04:16.750Z,9.00
2023-04-24T03:04:50.463Z,9.00
2023-04-24T03:05:23.234Z,9.00
2023-04-24T03:05:56.660Z,9.00
2023-04-24T03:06:30.196Z,9.06
2023-04-24T03:07:02.684Z,9.06
2023-04-24T03:07:39.815Z,9.00
2023-04-24T03:08:12.267Z,9.00
2023-04-24T03:08:45.897Z,9.00
2023-04-24T03:09:19.937Z,9.00
2023-04-24T03:09:53.883Z,9.00
2023-04-24T03:10:27.786Z,9.00
2023-04-24T03:11:00.432Z,9.00
2023-04-24T03:11:32.914Z,8.94
2023-04-24T03:12:06.495Z,8.94
2023-04-24T03:12:38.933Z,8.94
2023-04-24T03:13:11.486Z,9.00
2023-04-24T03:13:45.568Z,9.00
2023-04-24T03:14:18.081Z,9.00
2023-04-24T03:14:53.930Z,9.00
2023-04-24T03:15:28.613Z,9.00
2023-04-24T03:16:01.988Z,9.00
2023-04-24T03:16:34.782Z,9.00
2023-04-24T03:17:11.005Z,8.94
2023-04-24T03:17:44.247Z,8.94
2023-04-24T03:18:17.253Z,8.94
2023-04-24T03:18:51.278Z,8.94
2023-04-24T03:19:25.671Z,8.94
2023-04-24T03:20:10.870Z,8.94
2023-04-24T03:20:47.578Z,8.94
2023-04-24T03:21:21.632Z,8.94
2023-04-24T03:21:55.045Z,8.94
2023-04-24T03:22:28.617Z,8.94
2023-04-24T03:23:04.820Z,8.94
2023-04-24T03:23:38.311Z,8.88
2023-04-24T03:24:13.519Z,8.88
2023-04-24T03:24:47.756Z,8.88
2023-04-24T03:25:23.564Z,8.88
2023-04-24T03:25:58.142Z,8.88
2023-04-24T03:26:31.588Z,8.88
2023-04-24T03:27:22.650Z,8.88
2023-04-24T03:28:04.806Z,8.94
2023-04-24T03:28:59.816Z,8.94
2023-04-24T03:29:32.632Z,8.94
2023-04-24T03:30:06.733Z,8.94
2023-04-24T03:30:49.329Z,8.94
2023-04-24T03:31:23.352Z,8.94
2023-04-24T03:31:56.135Z,8.94
2023-04-24T03:32:29.911Z,8.94
2023-04-24T03:33:02.971Z,8.94
2023-04-24T03:33:39.164Z,8.94
2023-04-24T03:34:14.336Z,8.94
2023-04-24T03:34:46.910Z,8.94
2023-04-24T03:35:22.270Z,8.94
2023-04-24T03:35:56.076Z,8.94
2023-04-24T03:36:30.015Z,8.94
2023-04-24T03:37:02.583Z,8.94
2023-04-24T03:37:37.677Z,8.94
2023-04-24T03:38:39.266Z,8.94
2023-04-24T03:39:34.906Z,8.94
2023-04-24T03:40:10.690Z,8.88
2023-04-24T03:40:43.969Z,8.88
2023-04-24T03:41:37.667Z,8.88
2023-04-24T03:42:16.240Z,8.88
2023-04-24T03:42:56.706Z,8.88
2023-04-24T03:43:30.955Z,8.88
2023-04-24T03:44:05.713Z,8.88
2023-04-24T03:44:38.370Z,8.88
2023-04-24T03:45:12.573Z,8.88
2023-04-24T03:45:48.281Z,8.88
2023-04-24T03:46:21.536Z,8.88
2023-04-24T03:47:01.114Z,8.88
2023-04-24T03:47:33.725Z,8.88
2023-04-24T03:48:08.609Z,8.88
2023-04-24T03:48:41.420Z,8.88
2023-04-24T03:49:16.069Z,8.88
2023-04-24T03:49:51.008Z,8.88
2023-04-24T03:50:23.743Z,8.88
2023-04-24T03:50:57.359Z,8.88
2023-04-24T03:51:32.528Z,8.88
2023-04-24T03:52:25.482Z,8.81
2023-04-24T03:52:58.158Z,8.81
2023-04-24T03:53:41.001Z,8.88
2023-04-24T03:54:15.865Z,8.81
2023-04-24T03:54:48.414Z,8.81
2023-04-24T03:55:22.792Z,8.88
2023-04-24T03:55:56.519Z,8.81
2023-04-24T03:56:29.553Z,8.88
2023-04-24T03:57:04.421Z,8.88
2023-04-24T03:57:38.163Z,8.81
2023-04-24T03:58:23.314Z,8.81
2023-04-24T03:58:57.096Z,8.81
2023-04-24T03:59:29.753Z,8.81
2023-04-24T04:00:24.097Z,8.81
2023-04-24T04:01:08.529Z,8.81
2023-04-24T04:01:55.205Z,8.81
2023-04-24T04:02:27.935Z,8.81
2023-04-24T04:03:01.958Z,8.81
2023-04-24T04:03:36.065Z,8.81
2023-04-24T04:04:09.440Z,8.81
2023-04-24T04:04:43.483Z,8.81
2023-04-24T04:05:17.614Z,8.81
2023-04-24T04:05:50.297Z,8.81
2023-04-24T04:06:22.998Z,8.81
2023-04-24T04:07:02.075Z,8.81
2023-04-24T04:07:34.630Z,8.81
2023-04-24T04:08:07.336Z,8.81
2023-04-24T04:08:40.798Z,8.81
2023-04-24T04:09:13.318Z,8.81
2023-04-24T04:09:46.238Z,8.81
2023-04-24T04:10:19.800Z,8.81
2023-04-24T04:10:53.711Z,8.88
2023-04-24T04:11:26.378Z,8.81
2023-04-24T04:11:59.793Z,8.81
2023-04-24T04:12:32.400Z,8.81
2023-04-24T04:13:04.975Z,8.81
2023-04-24T04:13:38.492Z,8.81
2023-04-24T04:14:11.385Z,8.81
2023-04-24T04:14:46.883Z,8.81
2023-04-24T04:15:20.597Z,8.81
2023-04-24T04:15:54.295Z,8.81
2023-04-24T04:16:26.957Z,8.81
2023-04-24T04:17:05.664Z,8.81
2023-04-24T04:17:39.084Z,8.81
2023-04-24T04:18:13.335Z,8.81
2023-04-24T04:18:47.416Z,8.81
2023-04-24T04:19:19.927Z,8.81
2023-04-24T04:19:52.540Z,8.81
2023-04-24T04:20:25.638Z,8.81
2023-04-24T04:20:59.651Z,8.81
2023-04-24T04:21:33.112Z,8.75
2023-04-24T04:22:28.492Z,8.75
2023-04-24T04:23:02.276Z,8.75
2023-04-24T04:23:46.426Z,8.75
2023-04-24T04:24:25.021Z,8.75
2023-04-24T04:24:59.149Z,8.75
2023-04-24T04:25:32.377Z,8.69
2023-04-24T04:26:06.791Z,8.69
2023-04-24T04:27:05.803Z,8.69
2023-04-24T04:27:43.973Z,8.69
2023-04-24T04:28:20.945Z,8.69
2023-04-24T04:28:55.566Z,8.69
2023-04-24T04:29:28.204Z,8.69
2023-04-24T04:30:05.490Z,8.69
2023-04-24T04:30:45.010Z,8.69
2023-04-24T04:31:19.876Z,8.69
2023-04-24T04:31:52.583Z,8.69
2023-04-24T04:32:27.179Z,8.69
2023-04-24T04:33:00.330Z,8.69
2023-04-24T04:33:33.182Z,8.63
2023-04-24T04:34:06.833Z,8.63
2023-04-24T04:34:40.668Z,8.63
2023-04-24T04:35:14.780Z,8.63
2023-04-24T04:35:50.954Z,8.63
2023-04-24T04:36:24.968Z,8.63
2023-04-24T04:37:04.579Z,8.63
2023-04-24T04:37:53.843Z,8.63
2023-04-24T04:38:49.460Z,8.63
2023-04-24T04:39:42.311Z,8.63
2023-04-24T04:40:27.817Z,8.63
2023-04-24T04:41:08.204Z,8.56
2023-04-24T04:41:42.007Z,8.56
2023-04-24T04:42:16.430Z,8.56
2023-04-24T04:42:53.996Z,8.56
2023-04-24T04:43:27.474Z,8.50
2023-04-24T04:44:00.787Z,8.50
2023-04-24T04:44:36.787Z,8.50
2023-04-24T04:45:11.981Z,8.44
2023-04-24T04:45:58.463Z,8.44
2023-04-24T04:46:50.101Z,8.44
2023-04-24T04:47:33.514Z,8.38
2023-04-24T04:48:08.787Z,8.38
2023-04-24T04:48:41.916Z,8.38
2023-04-24T04:49:17.799Z,8.38
2023-04-24T04:49:52.576Z,8.38
2023-04-24T04:50:28.793Z,8.38
2023-04-24T04:51:08.323Z,8.38
2023-04-24T04:51:42.859Z,8.38
2023-04-24T04:52:17.750Z,8.31
2023-04-24T04:52:52.909Z,8.31
2023-04-24T04:53:33.157Z,8.25
2023-04-24T04:54:06.809Z,8.25
2023-04-24T04:54:39.768Z,8.19
2023-04-24T04:55:14.327Z,8.19
2023-04-24T04:56:15.372Z,8.13
2023-04-24T04:56:51.954Z,8.13
2023-04-24T04:57:24.912Z,8.13
2023-04-24T04:57:58.534Z,8.06
2023-04-24T04:58:31.700Z,8.06
2023-04-24T04:59:07.360Z,8.06
2023-04-24T04:59:42.381Z,8.00
2023-04-24T05:00:20.487Z,8.00
2023-04-24T05:00:58.343Z,8.00
2023-04-24T05:01:42.643Z,7.94
2023-04-24T05:02:17.061Z,7.94
2023-04-24T05:02:49.868Z,7.88
2023-04-24T05:03:23.738Z,7.88
2023-04-24T05:04:03.029Z,7.88
2023-04-24T05:04:35.932Z,7.88
2023-04-24T05:05:10.935Z,7.81
2023-04-24T05:05:43.681Z,7.81
2023-04-24T05:06:20.020Z,7.81
2023-04-24T05:06:52.907Z,7.75
2023-04-24T05:07:26.691Z,7.75
2023-04-24T05:08:02.040Z,7.69
2023-04-24T05:08:34.772Z,7.69
2023-04-24T05:09:08.532Z,7.69
2023-04-24T05:10:03.277Z,7.63
2023-04-24T05:10:35.803Z,7.63
2023-04-24T05:11:08.448Z,7.63
2023-04-24T05:11:43.412Z,7.63
2023-04-24T05:12:16.667Z,7.63
2023-04-24T05:12:56.199Z,7.56
2023-04-24T05:13:38.971Z,7.56
2023-04-24T05:14:20.113Z,7.63
2023-04-24T05:14:53.705Z,7.56
2023-04-24T05:15:26.313Z,7.56
2023-04-24T05:15:59.943Z,7.56
2023-04-24T05:16:34.110Z,7.56
2023-04-24T05:17:07.586Z,7.56
2023-04-24T05:17:41.579Z,7.56
2023-04-24T05:18:14.895Z,7.56
2023-04-24T05:18:47.454Z,7.56
2023-04-24T05:19:24.543Z,7.56
2023-04-24T05:19:57.050Z,7.56
2023-04-24T05:20:30.330Z,7.56
2023-04-24T05:21:03.961Z,7.56
2023-04-24T05:21:36.497Z,7.56
2023-04-24T05:22:10.599Z,7.50
2023-04-24T05:22:51.947Z,7.50
2023-04-24T05:23:26.042Z,7.50
2023-04-24T05:24:01.692Z,7.50
2023-04-24T05:24:50.083Z,7.44
2023-04-24T05:25:43.961Z,7.44
2023-04-24T05:26:18.849Z,7.44
2023-04-24T05:26:52.902Z,7.44
2023-04-24T05:27:31.199Z,7.44
2023-04-24T05:28:03.760Z,7.44
2023-04-24T05:28:37.845Z,7.44
2023-04-24T05:29:15.622Z,7.44
2023-04-24T05:29:48.898Z,7.44
2023-04-24T05:30:22.555Z,7.44
2023-04-24T05:30:56.852Z,7.44
2023-04-24T05:31:32.017Z,7.44
2023-04-24T05:32:05.862Z,7.50
2023-04-24T05:32:38.446Z,7.50
2023-04-24T05:33:11.124Z,7.50
2023-04-24T05:33:44.774Z,7.50
2023-04-24T05:34:17.818Z,7.50
2023-04-24T05:34:52.677Z,7.50
2023-04-24T05:35:26.049Z,7.50
2023-04-24T05:35:59.597Z,7.50
2023-04-24T05:36:32.165Z,7.50
2023-04-24T05:37:09.062Z,7.50
2023-04-24T05:37:42.556Z,7.50
2023-04-24T05:38:18.788Z,7.50
2023-04-24T05:38:51.267Z,7.50
2023-04-24T05:39:26.022Z,7.50
2023-04-24T05:39:59.629Z,7.50
2023-04-24T05:40:32.764Z,7.50
2023-04-24T05:41:06.474Z,7.50
2023-04-24T05:41:38.913Z,7.50
2023-04-24T05:42:12.994Z,7.50
2023-04-24T05:42:46.523Z,7.50
2023-04-24T05:43:19.093Z,7.50
2023-04-24T05:43:52.114Z,7.50
2023-04-24T05:44:25.680Z,7.50
2023-04-24T05:44:58.191Z,7.50
2023-04-24T05:45:30.730Z,7.50
2023-04-24T05:46:04.374Z,7.50
2023-04-24T05:46:36.918Z,7.50
2023-04-24T05:47:09.963Z,7.50
2023-04-24T05:47:43.611Z,7.50
2023-04-24T05:48:16.950Z,7.50
2023-04-24T05:48:49.418Z,7.50
2023-04-24T05:49:22.886Z,7.50
2023-04-24T05:49:55.625Z,7.50
2023-04-24T05:50:28.295Z,7.50
2023-04-24T05:51:01.898Z,7.50
2023-04-24T05:51:34.454Z,7.50
2023-04-24T05:52:09.699Z,7.50
2023-04-24T05:52:45.003Z,7.50
2023-04-24T05:53:29.653Z,7.50
2023-04-24T05:54:02.787Z,7.50
2023-04-24T05:54:36.338Z,7.50
2023-04-24T05:55:09.912Z,7.50
2023-04-24T05:55:44.869Z,7.50
2023-04-24T05:56:18.425Z,7.50
2023-04-24T05:56:51.314Z,7.44
2023-04-24T05:57:35.362Z,7.44
2023-04-24T05:58:11.417Z,7.44
2023-04-24T05:58:44.550Z,7.44
2023-04-24T05:59:18.051Z,7.44
2023-04-24T05:59:50.661Z,7.44
2023-04-24T06:00:25.658Z,7.44
2023-04-24T06:01:06.046Z,7.38
2023-04-24T06:01:40.607Z,7.38
2023-04-24T06:02:19.978Z,7.38
2023-04-24T06:02:53.835Z,7.38
2023-04-24T06:03:28.375Z,7.38
2023-04-24T06:04:02.154Z,7.38
2023-04-24T06:04:34.991Z,7.44
2023-04-24T06:05:10.563Z,7.44
2023-04-24T06:05:43.090Z,7.44
2023-04-24T06:06:16.670Z,7.44
2023-04-24T06:06:51.788Z,7.44
2023-04-24T06:07:24.670Z,7.44
2023-04-24T06:07:58.347Z,7.50
2023-04-24T06:08:35.357Z,7.50
2023-04-24T06:09:09.288Z,7.56
2023-04-24T06:09:41.973Z,7.56
2023-04-24T06:10:16.474Z,7.63
2023-04-24T06:10:50.859Z,7.63
2023-04-24T06:11:25.843Z,7.69
2023-04-24T06:12:00.924Z,7.69
2023-04-24T06:12:42.731Z,7.75
2023-04-24T06:13:22.279Z,7.75
2023-04-24T06:14:26.629Z,7.81
2023-04-24T06:15:18.932Z,7.81
2023-04-24T06:15:58.652Z,7.88
2023-04-24T06:16:39.988Z,7.88
2023-04-24T06:17:23.668Z,7.88
2023-04-24T06:17:56.762Z,7.88
2023-04-24T06:18:29.330Z,7.88
2023-04-24T06:19:04.022Z,7.81
2023-04-24T06:19:36.491Z,7.81
2023-04-24T06:20:09.841Z,7.81
2023-04-24T06:20:43.384Z,7.81
2023-04-24T06:21:17.587Z,7.81
2023-04-24T06:21:51.005Z,7.81
2023-04-24T06:22:24.492Z,7.81
2023-04-24T06:22:56.913Z,7.81
2023-04-24T06:23:30.355Z,7.81
2023-04-24T06:24:04.711Z,7.81
2023-04-24T06:24:37.899Z,7.81
2023-04-24T06:25:11.682Z,7.81
2023-04-24T06:25:44.205Z,7.81
2023-04-24T06:26:21.809Z,7.81
2023-04-24T06:26:54.267Z,7.81
2023-04-24T06:27:27.772Z,7.81
2023-04-24T06:28:01.676Z,7.75
2023-04-24T06:28:37.136Z,7.75
2023-04-24T06:29:09.614Z,7.75
2023-04-24T06:29:42.437Z,7.75
2023-04-24T06:30:16.097Z,7.75
2023-04-24T06:30:48.568Z,7.75
2023-04-24T06:31:21.254Z,7.75
2023-04-24T06:31:54.755Z,7.75
2023-04-24T06:32:32.167Z,7.75
2023-04-24T06:33:19.349Z,7.75
2023-04-24T06:33:53.149Z,7.81
2023-04-24T06:34:26.631Z,7.81
2023-04-24T06:34:59.693Z,7.81
2023-04-24T06:35:33.262Z,7.81
2023-04-24T06:36:06.208Z,7.88
2023-04-24T06:36:39.720Z,7.88
2023-04-24T06:37:12.152Z,7.88
2023-04-24T06:37:44.826Z,7.88
2023-04-24T06:38:18.341Z,7.94
2023-04-24T06:38:50.809Z,7.94
2023-04-24T06:39:23.233Z,7.94
2023-04-24T06:39:56.728Z,7.94
2023-04-24T06:40:29.200Z,7.94
2023-04-24T06:41:02.681Z,8.00
2023-04-24T06:41:35.699Z,8.00
2023-04-24T06:42:10.330Z,8.00
2023-04-24T06:42:43.826Z,8.00
2023-04-24T06:43:17.647Z,8.00
2023-04-24T06:43:51.142Z,8.06
2023-04-24T06:44:23.630Z,8.06
2023-04-24T06:44:57.100Z,8.06
2023-04-24T06:45:29.576Z,8.06
2023-04-24T06:46:04.406Z,8.13
2023-04-24T06:46:38.777Z,8.13
2023-04-24T06:47:14.558Z,8.13
2023-04-24T06:47:47.763Z,8.19
2023-04-24T06:48:21.219Z,8.19
2023-04-24T06:48:56.601Z,8.25
2023-04-24T06:49:30.012Z,8.25
2023-04-24T06:50:02.829Z,8.25
2023-04-24T06:50:36.275Z,8.31
2023-04-24T06:51:08.717Z,8.31
2023-04-24T06:51:41.180Z,8.31
2023-04-24T06:52:14.648Z,8.31
2023-04-24T06:52:47.337Z,8.31
2023-04-24T06:53:19.846Z,8.38
2023-04-24T06:53:54.910Z,8.38
2023-04-24T06:54:29.730Z,8.38
2023-04-24T06:55:03.268Z,8.38
2023-04-24T06:55:37.630Z,8.38
2023-04-24T06:56:10.122Z,8.38
2023-04-24T06:56:43.619Z,8.38
2023-04-24T06:57:17.147Z,8.38
2023-04-24T06:57:50.824Z,8.38
2023-04-24T06:58:25.461Z,8.38
2023-04-24T06:58:57.950Z,8.38
2023-04-24T06:59:31.673Z,8.38
2023-04-24T07:00:06.136Z,8.38
2023-04-24T07:00:39.710Z,8.38
2023-04-24T07:01:12.446Z,8.38
2023-04-24T07:01:45.154Z,8.38
2023-04-24T07:02:18.959Z,8.38
2023-04-24T07:02:51.733Z,8.38
2023-04-24T07:03:24.584Z,8.31
2023-04-24T07:03:58.664Z,8.31
2023-04-24T07:04:31.909Z,8.31
2023-04-24T07:05:05.843Z,8.31
2023-04-24T07:05:39.243Z,8.31
2023-04-24T07:06:13.556Z,8.31
2023-04-24T07:06:47.042Z,8.25
2023-04-24T07:07:19.520Z,8.25
2023-04-24T07:07:53.338Z,8.25
2023-04-24T07:08:26.424Z,8.19
2023-04-24T07:08:58.993Z,8.13
2023-04-24T07:09:32.914Z,8.13
2023-04-24T07:10:07.067Z,8.06
2023-04-24T07:10:39.827Z,8.06
2023-04-24T07:11:13.306Z,8.06
2023-04-24T07:11:45.854Z,8.06
2023-04-24T07:12:21.589Z,8.00
2023-04-24T07:12:55.008Z,8.00
2023-04-24T07:13:29.834Z,8.00
2023-04-24T07:14:02.322Z,8.00
2023-04-24T07:14:35.837Z,8.00
2023-04-24T07:15:09.726Z,8.00
2023-04-24T07:15:42.486Z,8.00
2023-04-24T07:16:16.022Z,8.00
2023-04-24T07:16:48.681Z,8.00
2023-04-24T07:17:22.093Z,8.00
2023-04-24T07:17:54.668Z,7.94
2023-04-24T07:18:28.175Z,7.94
2023-04-24T07:19:01.652Z,7.94
2023-04-24T07:19:35.238Z,7.94
2023-04-24T07:20:10.321Z,7.94
2023-04-24T07:20:42.788Z,7.94
2023-04-24T07:21:16.577Z,7.88
2023-04-24T07:21:49.102Z,7.88
2023-04-24T07:22:21.929Z,7.88
2023-04-24T07:22:55.800Z,7.88
2023-04-24T07:23:28.475Z,7.81
2023-04-24T07:24:02.625Z,7.81
2023-04-24T07:24:35.163Z,7.81
2023-04-24T07:25:08.676Z,7.81
2023-04-24T07:25:42.251Z,7.81
2023-04-24T07:26:15.800Z,7.75
2023-04-24T07:26:48.362Z,7.75
2023-04-24T07:27:21.876Z,7.75
2023-04-24T07:27:54.956Z,7.75
2023-04-24T07:28:32.028Z,7.75
2023-04-24T07:29:04.503Z,7.75
2023-04-24T07:29:36.969Z,7.75
2023-04-24T07:30:11.150Z,7.69
2023-04-24T07:30:43.600Z,7.75
2023-04-24T07:31:16.270Z,7.69
2023-04-24T07:31:49.977Z,7.69
2023-04-24T07:32:22.481Z,7.69
2023-04-24T07:32:54.993Z,7.69
2023-04-24T07:33:29.508Z,7.69
2023-04-24T07:34:02.018Z,7.69
2023-04-24T07:34:34.493Z,7.75
2023-04-24T07:35:10.553Z,7.75
2023-04-24T07:35:43.203Z,7.75
2023-04-24T07:36:19.837Z,7.69
2023-04-24T07:36:53.408Z,7.69
2023-04-24T07:37:26.461Z,7.69
2023-04-24T07:38:00.298Z,7.69
2023-04-24T07:38:33.079Z,7.69
2023-04-24T07:39:06.873Z,7.69
2023-04-24T07:39:39.335Z,7.69
2023-04-24T07:40:12.929Z,7.69
2023-04-24T07:40:48.494Z,7.69
2023-04-24T07:41:22.739Z,7.69